sensor_id;sensor_type;location;lat;lon;timestamp;P1;durP1;ratioP1;P2;durP2;ratioP2
15673;SDS011;7937;48.090;16.212;2023-11-21T00:01:17;6.00;;;1.80;;
15673;SDS011;7937;48.090;16.212;2023-11-21T00:04:19;3.00;;;1.50;;
15673;SDS011;7937;48.090;16.212;2023-11-21T00:07:22;5.30;;;1.30;;
15673;SDS011;7937;48.090;16.212;2023-11-21T00:10:24;2.53;;;1.23;;
15673;SDS011;7937;48.090;16.212;2023-11-21T00:13:26;5.17;;;1.40;;
15673;SDS011;7937;48.090;16.212;2023-11-21T00:16:29;2.20;;;1.13;;
15673;SDS011;7937;48.090;16.212;2023-11-21T00:19:31;5.47;;;1.30;;
15673;SDS011;7937;48.090;16.212;2023-11-21T00:22:35;6.07;;;1.13;;
15673;SDS011;7937;48.090;16.212;2023-11-21T00:25:38;3.80;;;1.40;;
15673;SDS011;7937;48.090;16.212;2023-11-21T00:28:40;5.90;;;1.60;;
15673;SDS011;7937;48.090;16.212;2023-11-21T00:31:43;2.53;;;1.53;;
15673;SDS011;7937;48.090;16.212;2023-11-21T00:34:46;6.63;;;1.33;;
15673;SDS011;7937;48.090;16.212;2023-11-21T00:37:48;5.13;;;1.40;;
15673;SDS011;7937;48.090;16.212;2023-11-21T00:40:51;5.43;;;1.60;;
15673;SDS011;7937;48.090;16.212;2023-11-21T00:43:54;6.00;;;1.30;;
15673;SDS011;7937;48.090;16.212;2023-11-21T00:46:56;4.30;;;1.63;;
15673;SDS011;7937;48.090;16.212;2023-11-21T00:49:59;5.43;;;1.50;;
15673;SDS011;7937;48.090;16.212;2023-11-21T00:53:01;3.13;;;1.20;;
15673;SDS011;7937;48.090;16.212;2023-11-21T00:56:04;4.23;;;1.23;;
15673;SDS011;7937;48.090;16.212;2023-11-21T00:59:06;4.30;;;1.10;;
15673;SDS011;7937;48.090;16.212;2023-11-21T01:02:08;5.77;;;1.30;;
15673;SDS011;7937;48.090;16.212;2023-11-21T01:05:12;5.23;;;1.20;;
15673;SDS011;7937;48.090;16.212;2023-11-21T01:08:14;4.50;;;1.10;;
15673;SDS011;7937;48.090;16.212;2023-11-21T01:11:17;2.87;;;1.07;;
15673;SDS011;7937;48.090;16.212;2023-11-21T01:14:19;6.97;;;1.70;;
15673;SDS011;7937;48.090;16.212;2023-11-21T01:17:21;4.00;;;1.50;;
15673;SDS011;7937;48.090;16.212;2023-11-21T01:20:25;6.23;;;1.20;;
15673;SDS011;7937;48.090;16.212;2023-11-21T01:23:28;3.57;;;1.10;;
15673;SDS011;7937;48.090;16.212;2023-11-21T01:26:30;3.63;;;0.90;;
15673;SDS011;7937;48.090;16.212;2023-11-21T01:29:32;3.40;;;0.93;;
15673;SDS011;7937;48.090;16.212;2023-11-21T01:32:34;5.27;;;1.17;;
15673;SDS011;7937;48.090;16.212;2023-11-21T01:35:37;5.70;;;1.30;;
15673;SDS011;7937;48.090;16.212;2023-11-21T01:38:40;2.97;;;1.03;;
15673;SDS011;7937;48.090;16.212;2023-11-21T01:41:42;7.17;;;1.30;;
15673;SDS011;7937;48.090;16.212;2023-11-21T01:44:47;3.80;;;1.90;;
15673;SDS011;7937;48.090;16.212;2023-11-21T01:47:50;1.97;;;1.00;;
15673;SDS011;7937;48.090;16.212;2023-11-21T01:50:54;5.37;;;1.10;;
15673;SDS011;7937;48.090;16.212;2023-11-21T01:53:57;4.93;;;1.33;;
15673;SDS011;7937;48.090;16.212;2023-11-21T01:57:00;6.50;;;1.63;;
15673;SDS011;7937;48.090;16.212;2023-11-21T02:00:04;6.53;;;1.23;;
15673;SDS011;7937;48.090;16.212;2023-11-21T02:03:17;2.17;;;1.33;;
15673;SDS011;7937;48.090;16.212;2023-11-21T02:06:19;4.50;;;1.13;;
15673;SDS011;7937;48.090;16.212;2023-11-21T02:09:25;6.73;;;1.67;;
15673;SDS011;7937;48.090;16.212;2023-11-21T02:12:28;6.10;;;1.70;;
15673;SDS011;7937;48.090;16.212;2023-11-21T02:15:30;5.83;;;1.70;;
15673;SDS011;7937;48.090;16.212;2023-11-21T02:18:33;4.60;;;1.40;;
15673;SDS011;7937;48.090;16.212;2023-11-21T02:21:35;3.97;;;1.20;;
15673;SDS011;7937;48.090;16.212;2023-11-21T02:24:42;4.57;;;1.43;;
15673;SDS011;7937;48.090;16.212;2023-11-21T02:27:44;5.33;;;1.27;;
15673;SDS011;7937;48.090;16.212;2023-11-21T02:30:50;8.53;;;1.87;;
15673;SDS011;7937;48.090;16.212;2023-11-21T02:33:57;5.27;;;1.47;;
15673;SDS011;7937;48.090;16.212;2023-11-21T02:36:59;5.47;;;1.37;;
15673;SDS011;7937;48.090;16.212;2023-11-21T02:40:01;4.70;;;1.60;;
15673;SDS011;7937;48.090;16.212;2023-11-21T02:43:08;6.27;;;1.47;;
15673;SDS011;7937;48.090;16.212;2023-11-21T02:46:10;6.03;;;1.73;;
15673;SDS011;7937;48.090;16.212;2023-11-21T02:49:13;7.13;;;1.70;;
15673;SDS011;7937;48.090;16.212;2023-11-21T02:52:15;5.53;;;1.63;;
15673;SDS011;7937;48.090;16.212;2023-11-21T02:55:18;5.00;;;1.30;;
15673;SDS011;7937;48.090;16.212;2023-11-21T02:58:20;5.07;;;1.40;;
15673;SDS011;7937;48.090;16.212;2023-11-21T03:01:23;4.33;;;1.40;;
15673;SDS011;7937;48.090;16.212;2023-11-21T03:04:29;6.43;;;1.40;;
15673;SDS011;7937;48.090;16.212;2023-11-21T03:07:34;3.77;;;0.87;;
15673;SDS011;7937;48.090;16.212;2023-11-21T03:10:37;5.47;;;1.30;;
15673;SDS011;7937;48.090;16.212;2023-11-21T03:13:40;3.73;;;1.37;;
15673;SDS011;7937;48.090;16.212;2023-11-21T03:16:44;4.27;;;1.17;;
15673;SDS011;7937;48.090;16.212;2023-11-21T03:19:46;4.37;;;1.30;;
15673;SDS011;7937;48.090;16.212;2023-11-21T03:22:49;7.50;;;1.40;;
15673;SDS011;7937;48.090;16.212;2023-11-21T03:25:51;4.47;;;1.40;;
15673;SDS011;7937;48.090;16.212;2023-11-21T03:28:53;4.90;;;0.90;;
15673;SDS011;7937;48.090;16.212;2023-11-21T03:31:55;5.80;;;1.13;;
15673;SDS011;7937;48.090;16.212;2023-11-21T03:34:57;4.17;;;1.20;;
15673;SDS011;7937;48.090;16.212;2023-11-21T03:38:01;6.10;;;1.80;;
15673;SDS011;7937;48.090;16.212;2023-11-21T03:41:04;5.17;;;1.30;;
15673;SDS011;7937;48.090;16.212;2023-11-21T03:44:06;5.07;;;1.10;;
15673;SDS011;7937;48.090;16.212;2023-11-21T03:47:08;4.70;;;1.13;;
15673;SDS011;7937;48.090;16.212;2023-11-21T03:50:11;2.63;;;1.43;;
15673;SDS011;7937;48.090;16.212;2023-11-21T03:53:13;5.03;;;1.50;;
15673;SDS011;7937;48.090;16.212;2023-11-21T03:56:15;7.23;;;1.60;;
15673;SDS011;7937;48.090;16.212;2023-11-21T03:59:17;3.37;;;1.13;;
15673;SDS011;7937;48.090;16.212;2023-11-21T04:02:20;2.77;;;0.90;;
15673;SDS011;7937;48.090;16.212;2023-11-21T04:05:22;5.17;;;1.50;;
15673;SDS011;7937;48.090;16.212;2023-11-21T04:08:25;4.30;;;1.30;;
15673;SDS011;7937;48.090;16.212;2023-11-21T04:11:27;3.03;;;0.90;;
15673;SDS011;7937;48.090;16.212;2023-11-21T04:14:31;5.07;;;1.30;;
15673;SDS011;7937;48.090;16.212;2023-11-21T04:17:33;3.67;;;1.00;;
15673;SDS011;7937;48.090;16.212;2023-11-21T04:20:36;7.43;;;1.20;;
15673;SDS011;7937;48.090;16.212;2023-11-21T04:23:38;5.17;;;1.53;;
15673;SDS011;7937;48.090;16.212;2023-11-21T04:26:41;4.67;;;1.40;;
15673;SDS011;7937;48.090;16.212;2023-11-21T04:29:44;4.57;;;1.40;;
15673;SDS011;7937;48.090;16.212;2023-11-21T04:32:46;3.93;;;1.30;;
15673;SDS011;7937;48.090;16.212;2023-11-21T04:35:48;2.40;;;1.00;;
15673;SDS011;7937;48.090;16.212;2023-11-21T04:38:50;5.93;;;1.43;;
15673;SDS011;7937;48.090;16.212;2023-11-21T04:41:52;3.37;;;1.30;;
15673;SDS011;7937;48.090;16.212;2023-11-21T04:44:54;2.93;;;1.17;;
15673;SDS011;7937;48.090;16.212;2023-11-21T04:47:56;8.43;;;1.90;;
15673;SDS011;7937;48.090;16.212;2023-11-21T04:50:58;3.73;;;1.60;;
15673;SDS011;7937;48.090;16.212;2023-11-21T04:54:00;3.37;;;1.67;;
15673;SDS011;7937;48.090;16.212;2023-11-21T04:57:02;3.60;;;1.57;;
15673;SDS011;7937;48.090;16.212;2023-11-21T05:00:07;4.77;;;1.30;;
15673;SDS011;7937;48.090;16.212;2023-11-21T05:03:10;2.93;;;1.03;;
15673;SDS011;7937;48.090;16.212;2023-11-21T05:06:13;4.17;;;1.13;;
15673;SDS011;7937;48.090;16.212;2023-11-21T05:09:16;4.20;;;1.47;;
15673;SDS011;7937;48.090;16.212;2023-11-21T05:12:18;4.27;;;1.40;;
15673;SDS011;7937;48.090;16.212;2023-11-21T05:15:20;4.33;;;1.60;;
15673;SDS011;7937;48.090;16.212;2023-11-21T05:18:22;10.63;;;1.63;;
15673;SDS011;7937;48.090;16.212;2023-11-21T05:21:25;6.13;;;1.90;;
15673;SDS011;7937;48.090;16.212;2023-11-21T05:24:27;5.27;;;1.47;;
15673;SDS011;7937;48.090;16.212;2023-11-21T05:27:30;7.07;;;1.93;;
15673;SDS011;7937;48.090;16.212;2023-11-21T05:30:32;5.43;;;1.43;;
15673;SDS011;7937;48.090;16.212;2023-11-21T05:33:34;6.87;;;1.70;;
15673;SDS011;7937;48.090;16.212;2023-11-21T05:36:36;6.63;;;1.97;;
15673;SDS011;7937;48.090;16.212;2023-11-21T05:39:38;3.13;;;1.20;;
15673;SDS011;7937;48.090;16.212;2023-11-21T05:42:40;4.67;;;1.30;;
15673;SDS011;7937;48.090;16.212;2023-11-21T05:45:42;6.63;;;1.73;;
15673;SDS011;7937;48.090;16.212;2023-11-21T05:48:44;11.40;;;1.77;;
15673;SDS011;7937;48.090;16.212;2023-11-21T05:51:47;6.83;;;2.13;;
15673;SDS011;7937;48.090;16.212;2023-11-21T05:54:49;3.70;;;1.43;;
15673;SDS011;7937;48.090;16.212;2023-11-21T05:57:51;7.67;;;1.77;;
15673;SDS011;7937;48.090;16.212;2023-11-21T06:00:53;5.83;;;1.70;;
15673;SDS011;7937;48.090;16.212;2023-11-21T06:03:55;3.10;;;1.00;;
15673;SDS011;7937;48.090;16.212;2023-11-21T06:06:57;7.20;;;1.53;;
15673;SDS011;7937;48.090;16.212;2023-11-21T06:09:59;4.87;;;1.50;;
15673;SDS011;7937;48.090;16.212;2023-11-21T06:13:04;6.37;;;1.50;;
15673;SDS011;7937;48.090;16.212;2023-11-21T06:16:06;3.97;;;1.17;;
15673;SDS011;7937;48.090;16.212;2023-11-21T06:19:08;7.07;;;1.43;;
15673;SDS011;7937;48.090;16.212;2023-11-21T06:22:10;3.07;;;1.10;;
15673;SDS011;7937;48.090;16.212;2023-11-21T06:25:12;5.67;;;1.90;;
15673;SDS011;7937;48.090;16.212;2023-11-21T06:28:15;9.07;;;1.77;;
15673;SDS011;7937;48.090;16.212;2023-11-21T06:31:19;5.13;;;1.50;;
15673;SDS011;7937;48.090;16.212;2023-11-21T06:34:23;3.97;;;1.20;;
15673;SDS011;7937;48.090;16.212;2023-11-21T06:37:29;2.90;;;1.10;;
15673;SDS011;7937;48.090;16.212;2023-11-21T06:40:31;3.13;;;1.40;;
15673;SDS011;7937;48.090;16.212;2023-11-21T06:43:35;5.40;;;1.23;;
15673;SDS011;7937;48.090;16.212;2023-11-21T06:46:37;3.50;;;1.10;;
15673;SDS011;7937;48.090;16.212;2023-11-21T06:49:44;5.50;;;1.40;;
15673;SDS011;7937;48.090;16.212;2023-11-21T06:52:49;4.57;;;1.20;;
15673;SDS011;7937;48.090;16.212;2023-11-21T06:55:51;3.27;;;1.30;;
15673;SDS011;7937;48.090;16.212;2023-11-21T06:58:54;7.40;;;2.07;;
15673;SDS011;7937;48.090;16.212;2023-11-21T07:01:56;9.03;;;2.93;;
15673;SDS011;7937;48.090;16.212;2023-11-21T07:04:58;6.53;;;2.23;;
15673;SDS011;7937;48.090;16.212;2023-11-21T07:08:00;3.63;;;2.13;;
15673;SDS011;7937;48.090;16.212;2023-11-21T07:11:06;5.37;;;2.33;;
15673;SDS011;7937;48.090;16.212;2023-11-21T07:14:08;9.57;;;1.90;;
15673;SDS011;7937;48.090;16.212;2023-11-21T07:17:11;2.50;;;1.60;;
15673;SDS011;7937;48.090;16.212;2023-11-21T07:20:13;3.97;;;1.77;;
15673;SDS011;7937;48.090;16.212;2023-11-21T07:23:19;3.17;;;1.73;;
15673;SDS011;7937;48.090;16.212;2023-11-21T07:26:21;4.03;;;1.57;;
15673;SDS011;7937;48.090;16.212;2023-11-21T07:29:24;4.33;;;1.60;;
15673;SDS011;7937;48.090;16.212;2023-11-21T07:32:31;8.37;;;1.53;;
15673;SDS011;7937;48.090;16.212;2023-11-21T07:35:33;5.73;;;1.50;;
15673;SDS011;7937;48.090;16.212;2023-11-21T07:38:36;5.00;;;1.40;;
15673;SDS011;7937;48.090;16.212;2023-11-21T07:41:37;5.37;;;1.90;;
15673;SDS011;7937;48.090;16.212;2023-11-21T07:44:46;6.23;;;1.73;;
15673;SDS011;7937;48.090;16.212;2023-11-21T07:47:48;6.37;;;1.80;;
15673;SDS011;7937;48.090;16.212;2023-11-21T07:50:50;7.40;;;1.50;;
15673;SDS011;7937;48.090;16.212;2023-11-21T07:53:52;7.17;;;1.47;;
15673;SDS011;7937;48.090;16.212;2023-11-21T07:56:55;7.07;;;1.53;;
15673;SDS011;7937;48.090;16.212;2023-11-21T07:59:57;3.57;;;1.20;;
15673;SDS011;7937;48.090;16.212;2023-11-21T08:02:59;7.27;;;1.70;;
15673;SDS011;7937;48.090;16.212;2023-11-21T08:06:01;7.43;;;1.30;;
15673;SDS011;7937;48.090;16.212;2023-11-21T08:09:08;6.07;;;1.23;;
15673;SDS011;7937;48.090;16.212;2023-11-21T08:12:10;6.33;;;1.97;;
15673;SDS011;7937;48.090;16.212;2023-11-21T08:15:12;3.77;;;1.33;;
15673;SDS011;7937;48.090;16.212;2023-11-21T08:18:15;4.40;;;1.30;;
15673;SDS011;7937;48.090;16.212;2023-11-21T08:21:19;6.57;;;1.10;;
15673;SDS011;7937;48.090;16.212;2023-11-21T08:24:21;6.83;;;1.33;;
15673;SDS011;7937;48.090;16.212;2023-11-21T08:27:23;2.37;;;1.30;;
15673;SDS011;7937;48.090;16.212;2023-11-21T08:30:25;3.93;;;1.30;;
15673;SDS011;7937;48.090;16.212;2023-11-21T08:33:31;6.17;;;1.30;;
15673;SDS011;7937;48.090;16.212;2023-11-21T08:36:34;6.60;;;1.80;;
15673;SDS011;7937;48.090;16.212;2023-11-21T08:39:37;2.73;;;1.10;;
15673;SDS011;7937;48.090;16.212;2023-11-21T08:42:39;7.07;;;1.60;;
15673;SDS011;7937;48.090;16.212;2023-11-21T08:45:41;4.43;;;1.43;;
15673;SDS011;7937;48.090;16.212;2023-11-21T08:48:43;3.40;;;1.57;;
15673;SDS011;7937;48.090;16.212;2023-11-21T08:51:45;3.80;;;1.30;;
15673;SDS011;7937;48.090;16.212;2023-11-21T08:54:48;5.80;;;1.27;;
15673;SDS011;7937;48.090;16.212;2023-11-21T08:57:57;3.47;;;0.97;;
15673;SDS011;7937;48.090;16.212;2023-11-21T09:01:03;3.27;;;1.33;;
15673;SDS011;7937;48.090;16.212;2023-11-21T09:04:05;4.40;;;1.20;;
15673;SDS011;7937;48.090;16.212;2023-11-21T09:07:07;3.20;;;1.03;;
15673;SDS011;7937;48.090;16.212;2023-11-21T09:10:10;5.13;;;1.23;;
15673;SDS011;7937;48.090;16.212;2023-11-21T09:13:12;3.20;;;0.93;;
15673;SDS011;7937;48.090;16.212;2023-11-21T09:16:14;4.50;;;1.23;;
15673;SDS011;7937;48.090;16.212;2023-11-21T09:19:17;3.57;;;1.17;;
15673;SDS011;7937;48.090;16.212;2023-11-21T09:22:19;3.07;;;0.90;;
15673;SDS011;7937;48.090;16.212;2023-11-21T09:25:22;2.00;;;0.80;;
15673;SDS011;7937;48.090;16.212;2023-11-21T09:28:24;2.00;;;0.60;;
15673;SDS011;7937;48.090;16.212;2023-11-21T09:31:26;3.60;;;0.60;;
15673;SDS011;7937;48.090;16.212;2023-11-21T09:34:29;1.67;;;0.60;;
15673;SDS011;7937;48.090;16.212;2023-11-21T09:37:31;2.50;;;0.97;;
15673;SDS011;7937;48.090;16.212;2023-11-21T09:40:33;3.93;;;0.90;;
15673;SDS011;7937;48.090;16.212;2023-11-21T09:43:35;3.27;;;1.00;;
15673;SDS011;7937;48.090;16.212;2023-11-21T09:46:38;5.20;;;1.37;;
15673;SDS011;7937;48.090;16.212;2023-11-21T09:49:45;4.97;;;1.17;;
15673;SDS011;7937;48.090;16.212;2023-11-21T09:53:03;5.60;;;1.40;;
15673;SDS011;7937;48.090;16.212;2023-11-21T09:56:19;3.23;;;1.10;;
15673;SDS011;7937;48.090;16.212;2023-11-21T09:59:25;3.53;;;1.23;;
15673;SDS011;7937;48.090;16.212;2023-11-21T10:02:32;5.67;;;1.50;;
15673;SDS011;7937;48.090;16.212;2023-11-21T10:05:38;2.53;;;1.10;;
15673;SDS011;7937;48.090;16.212;2023-11-21T10:08:41;4.00;;;1.50;;
15673;SDS011;7937;48.090;16.212;2023-11-21T10:11:56;3.87;;;1.27;;
15673;SDS011;7937;48.090;16.212;2023-11-21T10:15:01;4.67;;;1.60;;
15673;SDS011;7937;48.090;16.212;2023-11-21T10:18:07;4.50;;;1.37;;
15673;SDS011;7937;48.090;16.212;2023-11-21T10:21:11;3.83;;;1.60;;
15673;SDS011;7937;48.090;16.212;2023-11-21T10:24:13;5.30;;;1.20;;
15673;SDS011;7937;48.090;16.212;2023-11-21T10:27:15;5.00;;;1.37;;
15673;SDS011;7937;48.090;16.212;2023-11-21T10:30:17;3.87;;;1.30;;
15673;SDS011;7937;48.090;16.212;2023-11-21T10:33:26;2.37;;;1.30;;
15673;SDS011;7937;48.090;16.212;2023-11-21T10:36:31;4.00;;;1.20;;
15673;SDS011;7937;48.090;16.212;2023-11-21T10:39:33;6.30;;;1.07;;
15673;SDS011;7937;48.090;16.212;2023-11-21T10:42:35;4.73;;;1.30;;
15673;SDS011;7937;48.090;16.212;2023-11-21T10:45:37;3.97;;;1.07;;
15673;SDS011;7937;48.090;16.212;2023-11-21T10:48:40;1.40;;;0.73;;
15673;SDS011;7937;48.090;16.212;2023-11-21T10:51:44;3.50;;;0.90;;
15673;SDS011;7937;48.090;16.212;2023-11-21T10:54:46;2.43;;;0.80;;
15673;SDS011;7937;48.090;16.212;2023-11-21T10:57:51;1.20;;;0.60;;
15673;SDS011;7937;48.090;16.212;2023-11-21T11:00:55;2.17;;;0.83;;
15673;SDS011;7937;48.090;16.212;2023-11-21T11:03:59;4.57;;;0.87;;
15673;SDS011;7937;48.090;16.212;2023-11-21T11:07:03;2.40;;;0.73;;
15673;SDS011;7937;48.090;16.212;2023-11-21T11:10:11;2.63;;;0.93;;
15673;SDS011;7937;48.090;16.212;2023-11-21T11:13:16;2.63;;;0.90;;
15673;SDS011;7937;48.090;16.212;2023-11-21T11:16:18;3.43;;;0.70;;
15673;SDS011;7937;48.090;16.212;2023-11-21T11:19:21;2.90;;;0.80;;
15673;SDS011;7937;48.090;16.212;2023-11-21T11:22:27;1.57;;;0.80;;
15673;SDS011;7937;48.090;16.212;2023-11-21T11:32:31;3.23;;;0.87;;
15673;SDS011;7937;48.090;16.212;2023-11-21T11:35:41;2.70;;;1.17;;
15673;SDS011;7937;48.090;16.212;2023-11-21T11:38:52;2.33;;;0.93;;
15673;SDS011;7937;48.090;16.212;2023-11-21T11:41:58;2.23;;;1.00;;
15673;SDS011;7937;48.090;16.212;2023-11-21T11:45:16;3.43;;;1.03;;
15673;SDS011;7937;48.090;16.212;2023-11-21T11:48:21;1.63;;;0.77;;
15673;SDS011;7937;48.090;16.212;2023-11-21T11:51:25;2.80;;;0.90;;
15673;SDS011;7937;48.090;16.212;2023-11-21T11:54:34;2.80;;;0.80;;
15673;SDS011;7937;48.090;16.212;2023-11-21T11:57:38;4.00;;;0.90;;
15673;SDS011;7937;48.090;16.212;2023-11-21T12:00:44;1.57;;;0.70;;
15673;SDS011;7937;48.090;16.212;2023-11-21T12:07:22;2.50;;;0.50;;
15673;SDS011;7937;48.090;16.212;2023-11-21T12:10:26;3.50;;;0.77;;
15673;SDS011;7937;48.090;16.212;2023-11-21T12:13:30;2.17;;;0.80;;
15673;SDS011;7937;48.090;16.212;2023-11-21T12:16:32;1.37;;;0.90;;
15673;SDS011;7937;48.090;16.212;2023-11-21T12:19:34;3.07;;;0.87;;
15673;SDS011;7937;48.090;16.212;2023-11-21T12:22:37;2.57;;;0.60;;
15673;SDS011;7937;48.090;16.212;2023-11-21T12:25:39;1.60;;;0.77;;
15673;SDS011;7937;48.090;16.212;2023-11-21T12:28:51;3.03;;;0.90;;
15673;SDS011;7937;48.090;16.212;2023-11-21T12:31:56;2.30;;;0.70;;
15673;SDS011;7937;48.090;16.212;2023-11-21T12:34:58;0.60;;;0.50;;
15673;SDS011;7937;48.090;16.212;2023-11-21T12:38:02;2.27;;;0.97;;
15673;SDS011;7937;48.090;16.212;2023-11-21T12:41:06;4.00;;;0.80;;
15673;SDS011;7937;48.090;16.212;2023-11-21T12:44:09;1.53;;;0.80;;
15673;SDS011;7937;48.090;16.212;2023-11-21T12:47:16;1.37;;;0.97;;
15673;SDS011;7937;48.090;16.212;2023-11-21T12:50:20;1.40;;;0.60;;
15673;SDS011;7937;48.090;16.212;2023-11-21T12:53:25;1.60;;;0.60;;
15673;SDS011;7937;48.090;16.212;2023-11-21T12:56:27;2.03;;;0.50;;
15673;SDS011;7937;48.090;16.212;2023-11-21T12:59:29;1.00;;;0.50;;
15673;SDS011;7937;48.090;16.212;2023-11-21T13:02:33;2.97;;;0.90;;
15673;SDS011;7937;48.090;16.212;2023-11-21T13:05:37;1.20;;;0.60;;
15673;SDS011;7937;48.090;16.212;2023-11-21T13:08:41;3.57;;;1.13;;
15673;SDS011;7937;48.090;16.212;2023-11-21T13:11:43;1.73;;;0.83;;
15673;SDS011;7937;48.090;16.212;2023-11-21T13:14:47;1.17;;;0.73;;
15673;SDS011;7937;48.090;16.212;2023-11-21T13:17:49;4.17;;;1.07;;
15673;SDS011;7937;48.090;16.212;2023-11-21T13:20:53;3.57;;;1.00;;
15673;SDS011;7937;48.090;16.212;2023-11-21T13:24:00;2.10;;;0.80;;
15673;SDS011;7937;48.090;16.212;2023-11-21T13:27:02;4.20;;;1.00;;
15673;SDS011;7937;48.090;16.212;2023-11-21T13:30:05;1.07;;;0.80;;
15673;SDS011;7937;48.090;16.212;2023-11-21T13:33:09;2.57;;;0.90;;
15673;SDS011;7937;48.090;16.212;2023-11-21T13:36:24;4.23;;;0.80;;
15673;SDS011;7937;48.090;16.212;2023-11-21T13:39:27;3.90;;;0.90;;
15673;SDS011;7937;48.090;16.212;2023-11-21T13:42:30;3.57;;;0.83;;
15673;SDS011;7937;48.090;16.212;2023-11-21T13:45:33;2.07;;;1.30;;
15673;SDS011;7937;48.090;16.212;2023-11-21T13:48:37;3.03;;;0.90;;
15673;SDS011;7937;48.090;16.212;2023-11-21T13:51:52;3.00;;;1.13;;
15673;SDS011;7937;48.090;16.212;2023-11-21T13:54:57;1.60;;;0.80;;
15673;SDS011;7937;48.090;16.212;2023-11-21T13:57:59;1.77;;;0.97;;
15673;SDS011;7937;48.090;16.212;2023-11-21T14:01:01;1.20;;;0.87;;
15673;SDS011;7937;48.090;16.212;2023-11-21T14:04:07;1.70;;;0.83;;
15673;SDS011;7937;48.090;16.212;2023-11-21T14:07:15;2.53;;;0.87;;
15673;SDS011;7937;48.090;16.212;2023-11-21T14:10:36;2.93;;;0.80;;
15673;SDS011;7937;48.090;16.212;2023-11-21T14:13:52;1.60;;;1.00;;
15673;SDS011;7937;48.090;16.212;2023-11-21T14:16:55;2.10;;;0.80;;
15673;SDS011;7937;48.090;16.212;2023-11-21T14:19:58;4.37;;;1.03;;
15673;SDS011;7937;48.090;16.212;2023-11-21T14:23:01;3.67;;;0.90;;
15673;SDS011;7937;48.090;16.212;2023-11-21T14:26:03;2.67;;;1.00;;
15673;SDS011;7937;48.090;16.212;2023-11-21T14:29:08;2.17;;;1.10;;
15673;SDS011;7937;48.090;16.212;2023-11-21T14:32:13;1.43;;;0.80;;
15673;SDS011;7937;48.090;16.212;2023-11-21T14:35:16;1.57;;;0.93;;
15673;SDS011;7937;48.090;16.212;2023-11-21T14:38:19;1.87;;;1.17;;
15673;SDS011;7937;48.090;16.212;2023-11-21T14:41:21;2.77;;;1.20;;
15673;SDS011;7937;48.090;16.212;2023-11-21T14:44:23;4.27;;;1.33;;
15673;SDS011;7937;48.090;16.212;2023-11-21T14:47:28;3.00;;;1.00;;
15673;SDS011;7937;48.090;16.212;2023-11-21T14:50:30;1.43;;;1.00;;
15673;SDS011;7937;48.090;16.212;2023-11-21T14:53:51;1.57;;;0.87;;
15673;SDS011;7937;48.090;16.212;2023-11-21T14:56:56;1.73;;;0.90;;
15673;SDS011;7937;48.090;16.212;2023-11-21T14:59:58;0.97;;;0.90;;
15673;SDS011;7937;48.090;16.212;2023-11-21T15:03:00;0.97;;;0.60;;
15673;SDS011;7937;48.090;16.212;2023-11-21T15:06:04;4.47;;;0.90;;
15673;SDS011;7937;48.090;16.212;2023-11-21T15:09:28;1.97;;;0.60;;
15673;SDS011;7937;48.090;16.212;2023-11-21T15:12:33;3.20;;;1.43;;
15673;SDS011;7937;48.090;16.212;2023-11-21T15:15:35;4.30;;;1.03;;
15673;SDS011;7937;48.090;16.212;2023-11-21T15:18:38;3.00;;;0.83;;
15673;SDS011;7937;48.090;16.212;2023-11-21T15:21:40;3.63;;;0.87;;
15673;SDS011;7937;48.090;16.212;2023-11-21T15:24:42;4.53;;;1.20;;
15673;SDS011;7937;48.090;16.212;2023-11-21T15:27:47;1.73;;;1.00;;
15673;SDS011;7937;48.090;16.212;2023-11-21T15:30:51;6.47;;;1.40;;
15673;SDS011;7937;48.090;16.212;2023-11-21T15:33:53;1.17;;;0.90;;
15673;SDS011;7937;48.090;16.212;2023-11-21T15:36:56;2.87;;;1.00;;
15673;SDS011;7937;48.090;16.212;2023-11-21T15:39:58;4.13;;;1.20;;
15673;SDS011;7937;48.090;16.212;2023-11-21T15:43:00;1.80;;;1.00;;
15673;SDS011;7937;48.090;16.212;2023-11-21T15:46:04;4.03;;;1.60;;
15673;SDS011;7937;48.090;16.212;2023-11-21T15:49:10;2.37;;;0.87;;
15673;SDS011;7937;48.090;16.212;2023-11-21T15:52:18;2.07;;;1.17;;
15673;SDS011;7937;48.090;16.212;2023-11-21T15:55:20;1.17;;;1.00;;
15673;SDS011;7937;48.090;16.212;2023-11-21T15:58:22;1.63;;;1.10;;
15673;SDS011;7937;48.090;16.212;2023-11-21T16:01:26;3.20;;;1.10;;
15673;SDS011;7937;48.090;16.212;2023-11-21T16:04:28;2.70;;;1.03;;
15673;SDS011;7937;48.090;16.212;2023-11-21T16:07:31;1.97;;;1.03;;
15673;SDS011;7937;48.090;16.212;2023-11-21T16:10:34;1.40;;;0.90;;
15673;SDS011;7937;48.090;16.212;2023-11-21T16:13:38;1.00;;;0.90;;
15673;SDS011;7937;48.090;16.212;2023-11-21T16:16:42;2.83;;;0.93;;
15673;SDS011;7937;48.090;16.212;2023-11-21T16:19:44;3.53;;;1.50;;
15673;SDS011;7937;48.090;16.212;2023-11-21T16:22:48;1.87;;;0.90;;
15673;SDS011;7937;48.090;16.212;2023-11-21T16:25:51;2.40;;;0.80;;
15673;SDS011;7937;48.090;16.212;2023-11-21T16:28:56;1.83;;;0.80;;
15673;SDS011;7937;48.090;16.212;2023-11-21T16:31:58;1.10;;;0.90;;
15673;SDS011;7937;48.090;16.212;2023-11-21T16:35:02;3.27;;;1.00;;
15673;SDS011;7937;48.090;16.212;2023-11-21T16:38:05;1.83;;;1.43;;
15673;SDS011;7937;48.090;16.212;2023-11-21T16:41:07;4.23;;;2.10;;
15673;SDS011;7937;48.090;16.212;2023-11-21T16:44:17;2.87;;;2.00;;
15673;SDS011;7937;48.090;16.212;2023-11-21T16:47:21;3.10;;;1.80;;
15673;SDS011;7937;48.090;16.212;2023-11-21T16:50:25;1.60;;;1.30;;
15673;SDS011;7937;48.090;16.212;2023-11-21T16:53:27;4.00;;;1.77;;
15673;SDS011;7937;48.090;16.212;2023-11-21T16:56:29;5.03;;;1.90;;
15673;SDS011;7937;48.090;16.212;2023-11-21T16:59:31;4.37;;;2.27;;
15673;SDS011;7937;48.090;16.212;2023-11-21T17:02:33;3.53;;;2.13;;
15673;SDS011;7937;48.090;16.212;2023-11-21T17:05:35;4.57;;;1.97;;
15673;SDS011;7937;48.090;16.212;2023-11-21T17:08:39;2.77;;;2.10;;
15673;SDS011;7937;48.090;16.212;2023-11-21T17:11:47;4.50;;;2.67;;
15673;SDS011;7937;48.090;16.212;2023-11-21T17:14:50;8.43;;;2.87;;
15673;SDS011;7937;48.090;16.212;2023-11-21T17:17:52;2.60;;;2.40;;
15673;SDS011;7937;48.090;16.212;2023-11-21T17:20:57;3.67;;;2.20;;
15673;SDS011;7937;48.090;16.212;2023-11-21T17:23:59;3.80;;;2.50;;
15673;SDS011;7937;48.090;16.212;2023-11-21T17:27:03;3.83;;;1.60;;
15673;SDS011;7937;48.090;16.212;2023-11-21T17:30:06;3.93;;;2.30;;
15673;SDS011;7937;48.090;16.212;2023-11-21T17:33:09;4.57;;;2.73;;
15673;SDS011;7937;48.090;16.212;2023-11-21T17:36:11;6.13;;;2.17;;
15673;SDS011;7937;48.090;16.212;2023-11-21T17:39:16;3.53;;;2.10;;
15673;SDS011;7937;48.090;16.212;2023-11-21T17:42:19;2.80;;;2.20;;
15673;SDS011;7937;48.090;16.212;2023-11-21T17:45:21;4.37;;;2.73;;
15673;SDS011;7937;48.090;16.212;2023-11-21T17:48:24;5.83;;;3.57;;
15673;SDS011;7937;48.090;16.212;2023-11-21T17:51:29;5.47;;;3.50;;
15673;SDS011;7937;48.090;16.212;2023-11-21T17:54:32;6.13;;;3.67;;
15673;SDS011;7937;48.090;16.212;2023-11-21T17:57:34;4.17;;;3.50;;
15673;SDS011;7937;48.090;16.212;2023-11-21T18:00:37;4.23;;;3.53;;
15673;SDS011;7937;48.090;16.212;2023-11-21T18:03:40;4.03;;;2.60;;
15673;SDS011;7937;48.090;16.212;2023-11-21T18:06:43;7.63;;;3.60;;
15673;SDS011;7937;48.090;16.212;2023-11-21T18:09:46;3.93;;;3.33;;
15673;SDS011;7937;48.090;16.212;2023-11-21T18:12:48;7.20;;;4.10;;
15673;SDS011;7937;48.090;16.212;2023-11-21T18:15:51;5.40;;;4.10;;
15673;SDS011;7937;48.090;16.212;2023-11-21T18:18:53;4.03;;;3.63;;
15673;SDS011;7937;48.090;16.212;2023-11-21T18:21:55;6.83;;;3.60;;
15673;SDS011;7937;48.090;16.212;2023-11-21T18:24:58;7.57;;;3.97;;
15673;SDS011;7937;48.090;16.212;2023-11-21T18:28:00;3.67;;;3.37;;
15673;SDS011;7937;48.090;16.212;2023-11-21T18:31:06;6.37;;;4.30;;
15673;SDS011;7937;48.090;16.212;2023-11-21T18:34:10;6.57;;;4.47;;
15673;SDS011;7937;48.090;16.212;2023-11-21T18:37:12;4.93;;;4.00;;